sensor_id;sensor_type;location;lat;lon;timestamp;P1;durP1;ratioP1;P2;durP2;ratioP2
2944;SDS011;1482;51.398;7.128;2022-09-29T00:00:58;17.07;;;13.67;;
2944;SDS011;1482;51.398;7.128;2022-09-29T00:03:26;14.57;;;12.77;;
2944;SDS011;1482;51.398;7.128;2022-09-29T00:05:53;18.47;;;13.23;;
2944;SDS011;1482;51.398;7.128;2022-09-29T00:08:20;24.03;;;13.37;;
2944;SDS011;1482;51.398;7.128;2022-09-29T00:10:48;19.03;;;15.03;;
2944;SDS011;1482;51.398;7.128;2022-09-29T00:13:14;19.90;;;13.33;;
2944;SDS011;1482;51.398;7.128;2022-09-29T00:15:41;30.53;;;17.80;;
2944;SDS011;1482;51.398;7.128;2022-09-29T00:18:07;31.67;;;17.63;;
2944;SDS011;1482;51.398;7.128;2022-09-29T00:20:33;26.57;;;15.30;;
2944;SDS011;1482;51.398;7.128;2022-09-29T00:22:59;24.00;;;15.80;;
2944;SDS011;1482;51.398;7.128;2022-09-29T00:25:24;25.73;;;15.13;;
2944;SDS011;1482;51.398;7.128;2022-09-29T00:27:50;18.73;;;14.30;;
2944;SDS011;1482;51.398;7.128;2022-09-29T00:30:16;19.00;;;13.90;;
2944;SDS011;1482;51.398;7.128;2022-09-29T00:32:41;18.00;;;15.00;;
2944;SDS011;1482;51.398;7.128;2022-09-29T00:35:07;17.43;;;13.23;;
2944;SDS011;1482;51.398;7.128;2022-09-29T00:37:34;20.97;;;14.60;;
2944;SDS011;1482;51.398;7.128;2022-09-29T00:40:00;20.90;;;14.40;;
2944;SDS011;1482;51.398;7.128;2022-09-29T00:42:26;20.20;;;14.47;;
2944;SDS011;1482;51.398;7.128;2022-09-29T00:47:35;17.33;;;13.20;;
2944;SDS011;1482;51.398;7.128;2022-09-29T00:50:46;20.27;;;14.73;;
2944;SDS011;1482;51.398;7.128;2022-09-29T00:53:02;18.03;;;13.90;;
2944;SDS011;1482;51.398;7.128;2022-09-29T00:55:29;17.87;;;14.87;;
2944;SDS011;1482;51.398;7.128;2022-09-29T00:58:02;22.23;;;15.63;;
2944;SDS011;1482;51.398;7.128;2022-09-29T01:00:34;18.83;;;14.87;;
2944;SDS011;1482;51.398;7.128;2022-09-29T01:03:01;18.77;;;15.03;;
2944;SDS011;1482;51.398;7.128;2022-09-29T01:05:33;25.83;;;18.40;;
2944;SDS011;1482;51.398;7.128;2022-09-29T01:08:24;18.10;;;14.20;;
2944;SDS011;1482;51.398;7.128;2022-09-29T01:11:00;15.63;;;13.87;;
2944;SDS011;1482;51.398;7.128;2022-09-29T01:13:28;19.73;;;15.67;;
2944;SDS011;1482;51.398;7.128;2022-09-29T01:15:55;19.47;;;15.30;;
2944;SDS011;1482;51.398;7.128;2022-09-29T01:18:21;14.80;;;13.00;;
2944;SDS011;1482;51.398;7.128;2022-09-29T01:43:04;20.67;;;15.23;;
2944;SDS011;1482;51.398;7.128;2022-09-29T01:46:07;19.43;;;13.70;;
2944;SDS011;1482;51.398;7.128;2022-09-29T01:48:45;18.57;;;14.50;;
2944;SDS011;1482;51.398;7.128;2022-09-29T01:51:18;21.13;;;14.80;;
2944;SDS011;1482;51.398;7.128;2022-09-29T01:53:48;23.23;;;15.23;;
2944;SDS011;1482;51.398;7.128;2022-09-29T01:56:21;18.97;;;16.50;;
2944;SDS011;1482;51.398;7.128;2022-09-29T01:58:54;17.10;;;14.23;;
2944;SDS011;1482;51.398;7.128;2022-09-29T02:01:27;21.17;;;15.30;;
2944;SDS011;1482;51.398;7.128;2022-09-29T02:04:06;17.73;;;15.73;;
2944;SDS011;1482;51.398;7.128;2022-09-29T02:06:39;23.50;;;15.90;;
2944;SDS011;1482;51.398;7.128;2022-09-29T02:09:15;18.70;;;15.57;;
2944;SDS011;1482;51.398;7.128;2022-09-29T02:11:45;19.17;;;15.07;;
2944;SDS011;1482;51.398;7.128;2022-09-29T02:14:27;18.80;;;16.10;;
2944;SDS011;1482;51.398;7.128;2022-09-29T02:17:17;21.10;;;16.20;;
2944;SDS011;1482;51.398;7.128;2022-09-29T02:19:45;20.90;;;15.87;;
2944;SDS011;1482;51.398;7.128;2022-09-29T02:22:13;20.60;;;16.17;;
2944;SDS011;1482;51.398;7.128;2022-09-29T02:24:39;27.70;;;16.37;;
2944;SDS011;1482;51.398;7.128;2022-09-29T02:27:05;17.10;;;14.33;;
2944;SDS011;1482;51.398;7.128;2022-09-29T02:29:31;20.37;;;14.73;;
2944;SDS011;1482;51.398;7.128;2022-09-29T02:31:59;21.07;;;14.77;;
2944;SDS011;1482;51.398;7.128;2022-09-29T02:34:27;19.93;;;15.27;;
2944;SDS011;1482;51.398;7.128;2022-09-29T02:36:57;25.37;;;14.73;;
2944;SDS011;1482;51.398;7.128;2022-09-29T02:42:28;20.67;;;14.60;;
2944;SDS011;1482;51.398;7.128;2022-09-29T02:45:14;18.20;;;14.93;;
2944;SDS011;1482;51.398;7.128;2022-09-29T02:50:40;21.63;;;15.13;;
2944;SDS011;1482;51.398;7.128;2022-09-29T02:56:24;19.47;;;14.47;;
2944;SDS011;1482;51.398;7.128;2022-09-29T02:58:51;18.80;;;14.23;;
2944;SDS011;1482;51.398;7.128;2022-09-29T03:01:23;15.77;;;14.20;;
2944;SDS011;1482;51.398;7.128;2022-09-29T03:03:48;17.50;;;14.30;;
2944;SDS011;1482;51.398;7.128;2022-09-29T03:06:14;18.77;;;14.83;;
2944;SDS011;1482;51.398;7.128;2022-09-29T03:08:42;15.83;;;11.83;;
2944;SDS011;1482;51.398;7.128;2022-09-29T03:11:07;18.13;;;12.63;;
2944;SDS011;1482;51.398;7.128;2022-09-29T03:13:33;19.70;;;14.10;;
2944;SDS011;1482;51.398;7.128;2022-09-29T03:15:59;16.70;;;13.07;;
2944;SDS011;1482;51.398;7.128;2022-09-29T03:18:24;15.60;;;13.20;;
2944;SDS011;1482;51.398;7.128;2022-09-29T03:20:52;20.77;;;14.20;;
2944;SDS011;1482;51.398;7.128;2022-09-29T03:23:18;17.17;;;13.00;;
2944;SDS011;1482;51.398;7.128;2022-09-29T03:25:43;19.00;;;13.20;;
2944;SDS011;1482;51.398;7.128;2022-09-29T03:28:09;32.43;;;13.60;;
2944;SDS011;1482;51.398;7.128;2022-09-29T03:30:34;21.87;;;14.73;;
2944;SDS011;1482;51.398;7.128;2022-09-29T03:33:00;14.50;;;13.00;;
2944;SDS011;1482;51.398;7.128;2022-09-29T03:35:25;16.40;;;13.67;;
2944;SDS011;1482;51.398;7.128;2022-09-29T03:37:55;16.47;;;14.30;;
2944;SDS011;1482;51.398;7.128;2022-09-29T03:40:22;16.80;;;13.27;;
2944;SDS011;1482;51.398;7.128;2022-09-29T03:42:48;17.53;;;13.27;;
2944;SDS011;1482;51.398;7.128;2022-09-29T03:45:13;21.90;;;14.27;;
2944;SDS011;1482;51.398;7.128;2022-09-29T03:47:39;16.90;;;13.60;;
2944;SDS011;1482;51.398;7.128;2022-09-29T03:50:04;19.07;;;13.73;;
2944;SDS011;1482;51.398;7.128;2022-09-29T03:52:30;17.77;;;14.70;;
2944;SDS011;1482;51.398;7.128;2022-09-29T03:54:56;19.40;;;14.03;;
2944;SDS011;1482;51.398;7.128;2022-09-29T03:57:21;18.27;;;12.33;;
2944;SDS011;1482;51.398;7.128;2022-09-29T03:59:47;19.73;;;14.23;;
2944;SDS011;1482;51.398;7.128;2022-09-29T04:02:13;16.77;;;14.23;;
2944;SDS011;1482;51.398;7.128;2022-09-29T04:04:38;20.23;;;14.47;;
2944;SDS011;1482;51.398;7.128;2022-09-29T04:07:04;20.53;;;13.70;;
2944;SDS011;1482;51.398;7.128;2022-09-29T04:09:29;21.10;;;14.43;;
2944;SDS011;1482;51.398;7.128;2022-09-29T04:11:55;24.73;;;14.77;;
2944;SDS011;1482;51.398;7.128;2022-09-29T04:14:20;21.63;;;15.23;;
2944;SDS011;1482;51.398;7.128;2022-09-29T04:16:46;18.67;;;14.60;;
2944;SDS011;1482;51.398;7.128;2022-09-29T04:19:11;19.37;;;14.17;;
2944;SDS011;1482;51.398;7.128;2022-09-29T04:21:38;17.47;;;14.73;;
2944;SDS011;1482;51.398;7.128;2022-09-29T04:24:04;21.47;;;13.90;;
2944;SDS011;1482;51.398;7.128;2022-09-29T04:26:29;19.03;;;14.50;;
2944;SDS011;1482;51.398;7.128;2022-09-29T04:28:55;21.10;;;15.30;;
2944;SDS011;1482;51.398;7.128;2022-09-29T04:31:20;20.63;;;14.20;;
2944;SDS011;1482;51.398;7.128;2022-09-29T04:33:46;20.70;;;14.77;;
2944;SDS011;1482;51.398;7.128;2022-09-29T04:36:11;19.40;;;13.87;;
2944;SDS011;1482;51.398;7.128;2022-09-29T04:38:37;20.17;;;15.50;;
2944;SDS011;1482;51.398;7.128;2022-09-29T04:41:02;18.57;;;14.63;;
2944;SDS011;1482;51.398;7.128;2022-09-29T04:43:28;18.30;;;12.67;;
2944;SDS011;1482;51.398;7.128;2022-09-29T04:46:00;18.67;;;13.93;;
2944;SDS011;1482;51.398;7.128;2022-09-29T04:48:26;15.67;;;14.00;;
2944;SDS011;1482;51.398;7.128;2022-09-29T04:50:52;22.30;;;15.33;;
2944;SDS011;1482;51.398;7.128;2022-09-29T04:53:18;21.30;;;14.23;;
2944;SDS011;1482;51.398;7.128;2022-09-29T04:55:44;16.00;;;13.30;;
2944;SDS011;1482;51.398;7.128;2022-09-29T04:58:10;21.20;;;14.53;;
2944;SDS011;1482;51.398;7.128;2022-09-29T05:00:35;15.87;;;13.73;;
2944;SDS011;1482;51.398;7.128;2022-09-29T05:03:01;19.77;;;14.83;;
2944;SDS011;1482;51.398;7.128;2022-09-29T05:05:27;26.83;;;14.53;;
2944;SDS011;1482;51.398;7.128;2022-09-29T05:07:52;21.20;;;15.63;;
2944;SDS011;1482;51.398;7.128;2022-09-29T05:10:18;27.67;;;14.90;;
2944;SDS011;1482;51.398;7.128;2022-09-29T05:12:47;21.67;;;16.60;;
2944;SDS011;1482;51.398;7.128;2022-09-29T05:15:14;17.83;;;15.07;;
2944;SDS011;1482;51.398;7.128;2022-09-29T05:17:41;20.00;;;13.03;;
2944;SDS011;1482;51.398;7.128;2022-09-29T05:20:07;14.50;;;13.07;;
2944;SDS011;1482;51.398;7.128;2022-09-29T05:22:32;19.13;;;11.57;;
2944;SDS011;1482;51.398;7.128;2022-09-29T05:24:58;12.90;;;11.60;;
2944;SDS011;1482;51.398;7.128;2022-09-29T05:27:24;17.80;;;12.50;;
2944;SDS011;1482;51.398;7.128;2022-09-29T05:29:49;14.53;;;11.73;;
2944;SDS011;1482;51.398;7.128;2022-09-29T05:32:15;14.17;;;11.93;;
2944;SDS011;1482;51.398;7.128;2022-09-29T05:34:40;15.20;;;12.97;;
2944;SDS011;1482;51.398;7.128;2022-09-29T05:37:06;15.93;;;12.43;;
2944;SDS011;1482;51.398;7.128;2022-09-29T05:39:32;19.10;;;14.50;;
2944;SDS011;1482;51.398;7.128;2022-09-29T05:41:59;16.70;;;14.10;;
2944;SDS011;1482;51.398;7.128;2022-09-29T05:44:26;14.20;;;12.30;;
2944;SDS011;1482;51.398;7.128;2022-09-29T05:46:52;18.60;;;15.10;;
2944;SDS011;1482;51.398;7.128;2022-09-29T05:49:17;17.67;;;14.30;;
2944;SDS011;1482;51.398;7.128;2022-09-29T05:51:43;22.67;;;14.77;;
2944;SDS011;1482;51.398;7.128;2022-09-29T05:54:09;18.30;;;14.67;;
2944;SDS011;1482;51.398;7.128;2022-09-29T05:56:34;19.03;;;15.93;;
2944;SDS011;1482;51.398;7.128;2022-09-29T05:59:00;19.03;;;13.83;;
2944;SDS011;1482;51.398;7.128;2022-09-29T06:01:25;15.87;;;12.90;;
2944;SDS011;1482;51.398;7.128;2022-09-29T06:03:52;19.10;;;15.10;;
2944;SDS011;1482;51.398;7.128;2022-09-29T06:06:19;19.47;;;14.17;;
2944;SDS011;1482;51.398;7.128;2022-09-29T06:08:46;16.60;;;13.10;;
2944;SDS011;1482;51.398;7.128;2022-09-29T06:11:14;20.47;;;13.90;;
2944;SDS011;1482;51.398;7.128;2022-09-29T06:13:42;14.90;;;13.33;;
2944;SDS011;1482;51.398;7.128;2022-09-29T06:16:10;18.30;;;13.07;;
2944;SDS011;1482;51.398;7.128;2022-09-29T06:18:37;13.57;;;11.87;;
2944;SDS011;1482;51.398;7.128;2022-09-29T06:21:09;16.73;;;12.47;;
2944;SDS011;1482;51.398;7.128;2022-09-29T06:23:40;13.20;;;9.60;;
2944;SDS011;1482;51.398;7.128;2022-09-29T06:26:07;9.20;;;8.30;;
2944;SDS011;1482;51.398;7.128;2022-09-29T06:28:34;8.43;;;7.73;;
2944;SDS011;1482;51.398;7.128;2022-09-29T06:31:04;8.50;;;7.43;;
2944;SDS011;1482;51.398;7.128;2022-09-29T06:33:32;9.03;;;7.17;;
2944;SDS011;1482;51.398;7.128;2022-09-29T06:36:01;8.23;;;7.37;;
2944;SDS011;1482;51.398;7.128;2022-09-29T06:38:49;9.13;;;8.23;;
2944;SDS011;1482;51.398;7.128;2022-09-29T06:41:14;8.03;;;7.33;;
2944;SDS011;1482;51.398;7.128;2022-09-29T06:43:40;7.87;;;7.17;;
2944;SDS011;1482;51.398;7.128;2022-09-29T06:46:06;7.93;;;7.20;;
2944;SDS011;1482;51.398;7.128;2022-09-29T06:48:31;7.20;;;6.67;;
2944;SDS011;1482;51.398;7.128;2022-09-29T06:50:57;12.20;;;7.70;;
2944;SDS011;1482;51.398;7.128;2022-09-29T06:53:22;8.20;;;7.60;;
2944;SDS011;1482;51.398;7.128;2022-09-29T06:55:51;8.57;;;7.67;;
2944;SDS011;1482;51.398;7.128;2022-09-29T06:58:18;7.07;;;6.57;;
2944;SDS011;1482;51.398;7.128;2022-09-29T07:00:43;8.07;;;7.47;;
2944;SDS011;1482;51.398;7.128;2022-09-29T07:03:09;8.20;;;7.60;;
2944;SDS011;1482;51.398;7.128;2022-09-29T07:05:35;8.60;;;7.80;;
2944;SDS011;1482;51.398;7.128;2022-09-29T07:08:00;9.17;;;8.43;;
2944;SDS011;1482;51.398;7.128;2022-09-29T07:10:27;8.80;;;8.27;;
2944;SDS011;1482;51.398;7.128;2022-09-29T07:12:53;9.30;;;8.60;;
2944;SDS011;1482;51.398;7.128;2022-09-29T07:15:19;9.83;;;8.97;;
2944;SDS011;1482;51.398;7.128;2022-09-29T07:17:45;12.13;;;11.27;;
2944;SDS011;1482;51.398;7.128;2022-09-29T07:20:14;8.30;;;7.80;;
2944;SDS011;1482;51.398;7.128;2022-09-29T07:22:40;9.30;;;8.70;;
2944;SDS011;1482;51.398;7.128;2022-09-29T07:25:05;10.03;;;9.27;;
2944;SDS011;1482;51.398;7.128;2022-09-29T07:27:31;9.90;;;8.90;;
2944;SDS011;1482;51.398;7.128;2022-09-29T07:29:58;9.50;;;8.70;;
2944;SDS011;1482;51.398;7.128;2022-09-29T07:32:23;9.00;;;8.40;;
2944;SDS011;1482;51.398;7.128;2022-09-29T07:34:50;9.33;;;8.47;;
2944;SDS011;1482;51.398;7.128;2022-09-29T07:37:16;8.80;;;8.27;;
2944;SDS011;1482;51.398;7.128;2022-09-29T07:39:42;8.27;;;7.67;;
2944;SDS011;1482;51.398;7.128;2022-09-29T07:42:07;9.33;;;8.50;;
2944;SDS011;1482;51.398;7.128;2022-09-29T07:44:33;8.70;;;7.93;;
2944;SDS011;1482;51.398;7.128;2022-09-29T07:46:58;8.93;;;8.33;;
2944;SDS011;1482;51.398;7.128;2022-09-29T07:49:24;9.07;;;8.57;;
2944;SDS011;1482;51.398;7.128;2022-09-29T07:51:50;9.20;;;8.53;;
2944;SDS011;1482;51.398;7.128;2022-09-29T07:54:16;8.93;;;8.23;;
2944;SDS011;1482;51.398;7.128;2022-09-29T07:56:41;6.30;;;5.80;;
2944;SDS011;1482;51.398;7.128;2022-09-29T07:59:09;8.30;;;5.20;;
2944;SDS011;1482;51.398;7.128;2022-09-29T08:01:35;5.87;;;5.30;;
2944;SDS011;1482;51.398;7.128;2022-09-29T08:04:00;7.87;;;7.37;;
2944;SDS011;1482;51.398;7.128;2022-09-29T08:06:26;9.50;;;8.90;;
2944;SDS011;1482;51.398;7.128;2022-09-29T08:08:52;13.77;;;12.97;;
2944;SDS011;1482;51.398;7.128;2022-09-29T08:11:19;13.20;;;12.40;;
2944;SDS011;1482;51.398;7.128;2022-09-29T08:13:45;9.00;;;8.30;;
2944;SDS011;1482;51.398;7.128;2022-09-29T08:16:12;9.83;;;9.03;;
2944;SDS011;1482;51.398;7.128;2022-09-29T08:18:38;8.00;;;7.30;;
2944;SDS011;1482;51.398;7.128;2022-09-29T08:21:05;8.47;;;7.80;;
2944;SDS011;1482;51.398;7.128;2022-09-29T08:23:34;11.20;;;10.30;;
2944;SDS011;1482;51.398;7.128;2022-09-29T08:26:04;10.30;;;9.50;;
2944;SDS011;1482;51.398;7.128;2022-09-29T08:28:41;11.03;;;10.10;;
2944;SDS011;1482;51.398;7.128;2022-09-29T08:31:11;12.20;;;11.40;;
2944;SDS011;1482;51.398;7.128;2022-09-29T08:33:39;11.77;;;11.07;;
2944;SDS011;1482;51.398;7.128;2022-09-29T08:36:05;10.90;;;9.93;;
2944;SDS011;1482;51.398;7.128;2022-09-29T08:38:39;8.87;;;8.00;;
2944;SDS011;1482;51.398;7.128;2022-09-29T08:41:09;8.90;;;8.30;;
2944;SDS011;1482;51.398;7.128;2022-09-29T08:43:58;7.50;;;7.00;;
2944;SDS011;1482;51.398;7.128;2022-09-29T08:46:45;8.80;;;8.10;;
2944;SDS011;1482;51.398;7.128;2022-09-29T08:52:10;7.50;;;7.00;;
2944;SDS011;1482;51.398;7.128;2022-09-29T08:54:40;8.30;;;7.80;;
2944;SDS011;1482;51.398;7.128;2022-09-29T08:57:14;8.00;;;7.33;;
2944;SDS011;1482;51.398;7.128;2022-09-29T08:59:42;8.40;;;7.70;;
2944;SDS011;1482;51.398;7.128;2022-09-29T09:02:30;7.80;;;7.20;;
2944;SDS011;1482;51.398;7.128;2022-09-29T09:05:26;7.83;;;7.03;;
2944;SDS011;1482;51.398;7.128;2022-09-29T09:14:00;7.17;;;6.50;;
2944;SDS011;1482;51.398;7.128;2022-09-29T09:19:34;7.10;;;6.50;;
2944;SDS011;1482;51.398;7.128;2022-09-29T09:22:17;9.17;;;6.50;;
2944;SDS011;1482;51.398;7.128;2022-09-29T09:27:24;16.90;;;7.43;;
2944;SDS011;1482;51.398;7.128;2022-09-29T09:32:55;7.43;;;6.73;;
2944;SDS011;1482;51.398;7.128;2022-09-29T09:38:01;7.70;;;6.43;;
2944;SDS011;1482;51.398;7.128;2022-09-29T09:40:36;6.17;;;5.57;;
2944;SDS011;1482;51.398;7.128;2022-09-29T09:43:10;6.30;;;5.80;;
2944;SDS011;1482;51.398;7.128;2022-09-29T09:46:02;6.57;;;6.00;;
2944;SDS011;1482;51.398;7.128;2022-09-29T09:48:35;15.83;;;7.10;;
2944;SDS011;1482;51.398;7.128;2022-09-29T09:53:49;6.27;;;5.77;;
2944;SDS011;1482;51.398;7.128;2022-09-29T09:56:22;9.47;;;6.70;;
2944;SDS011;1482;51.398;7.128;2022-09-29T09:59:16;8.43;;;6.63;;
2944;SDS011;1482;51.398;7.128;2022-09-29T10:01:52;7.97;;;5.77;;
2944;SDS011;1482;51.398;7.128;2022-09-29T10:04:18;7.73;;;7.13;;
2944;SDS011;1482;51.398;7.128;2022-09-29T10:06:43;7.70;;;6.50;;
2944;SDS011;1482;51.398;7.128;2022-09-29T10:09:12;8.50;;;7.80;;
2944;SDS011;1482;51.398;7.128;2022-09-29T10:11:39;7.33;;;5.67;;
2944;SDS011;1482;51.398;7.128;2022-09-29T10:16:50;11.30;;;7.60;;
2944;SDS011;1482;51.398;7.128;2022-09-29T10:19:50;7.10;;;5.97;;
2944;SDS011;1482;51.398;7.128;2022-09-29T10:22:16;4.67;;;4.37;;
2944;SDS011;1482;51.398;7.128;2022-09-29T10:24:43;4.07;;;3.77;;
2944;SDS011;1482;51.398;7.128;2022-09-29T10:27:09;3.33;;;3.03;;
2944;SDS011;1482;51.398;7.128;2022-09-29T10:29:39;3.57;;;3.27;;
2944;SDS011;1482;51.398;7.128;2022-09-29T10:37:45;4.40;;;3.60;;
2944;SDS011;1482;51.398;7.128;2022-09-29T10:40:24;8.00;;;4.50;;
2944;SDS011;1482;51.398;7.128;2022-09-29T10:42:49;4.00;;;3.70;;
2944;SDS011;1482;51.398;7.128;2022-09-29T10:45:18;3.50;;;3.20;;
2944;SDS011;1482;51.398;7.128;2022-09-29T10:50:25;3.40;;;3.20;;
2944;SDS011;1482;51.398;7.128;2022-09-29T10:55:31;9.67;;;4.10;;
2944;SDS011;1482;51.398;7.128;2022-09-29T10:58:06;5.90;;;3.47;;
2944;SDS011;1482;51.398;7.128;2022-09-29T11:00:43;4.23;;;3.70;;
2944;SDS011;1482;51.398;7.128;2022-09-29T11:03:20;3.90;;;3.50;;
2944;SDS011;1482;51.398;7.128;2022-09-29T11:06:06;3.30;;;3.00;;
2944;SDS011;1482;51.398;7.128;2022-09-29T11:11:23;3.70;;;3.40;;
2944;SDS011;1482;51.398;7.128;2022-09-29T11:13:54;4.00;;;3.13;;
2944;SDS011;1482;51.398;7.128;2022-09-29T11:16:28;3.90;;;2.97;;
2944;SDS011;1482;51.398;7.128;2022-09-29T11:19:11;3.80;;;3.43;;
2944;SDS011;1482;51.398;7.128;2022-09-29T11:30:09;4.40;;;3.83;;
2944;SDS011;1482;51.398;7.128;2022-09-29T11:32:45;6.33;;;3.33;;
2944;SDS011;1482;51.398;7.128;2022-09-29T11:35:49;5.30;;;3.23;;
2944;SDS011;1482;51.398;7.128;2022-09-29T11:41:19;3.47;;;3.23;;
2944;SDS011;1482;51.398;7.128;2022-09-29T11:55:22;3.60;;;3.00;;
2944;SDS011;1482;51.398;7.128;2022-09-29T11:58:00;5.53;;;2.90;;
2944;SDS011;1482;51.398;7.128;2022-09-29T12:14:52;2.97;;;2.40;;
2944;SDS011;1482;51.398;7.128;2022-09-29T12:17:47;6.23;;;2.97;;
2944;SDS011;1482;51.398;7.128;2022-09-29T12:20:23;2.90;;;2.20;;
2944;SDS011;1482;51.398;7.128;2022-09-29T12:22:52;2.90;;;2.70;;
2944;SDS011;1482;51.398;7.128;2022-09-29T12:25:22;4.17;;;2.30;;
2944;SDS011;1482;51.398;7.128;2022-09-29T12:27:50;6.47;;;2.90;;
2944;SDS011;1482;51.398;7.128;2022-09-29T12:30:21;2.80;;;2.50;;
2944;SDS011;1482;51.398;7.128;2022-09-29T12:32:59;6.73;;;3.20;;
2944;SDS011;1482;51.398;7.128;2022-09-29T12:35:39;3.83;;;2.30;;
2944;SDS011;1482;51.398;7.128;2022-09-29T12:38:24;3.67;;;2.90;;
2944;SDS011;1482;51.398;7.128;2022-09-29T12:43:50;5.87;;;3.10;;
2944;SDS011;1482;51.398;7.128;2022-09-29T12:46:33;4.10;;;2.40;;
2944;SDS011;1482;51.398;7.128;2022-09-29T12:49:22;5.10;;;3.17;;
2944;SDS011;1482;51.398;7.128;2022-09-29T12:51:57;5.63;;;2.73;;
2944;SDS011;1482;51.398;7.128;2022-09-29T12:54:32;3.77;;;3.47;;
2944;SDS011;1482;51.398;7.128;2022-09-29T12:57:13;5.67;;;2.60;;
2944;SDS011;1482;51.398;7.128;2022-09-29T12:59:52;7.50;;;2.30;;
2944;SDS011;1482;51.398;7.128;2022-09-29T13:05:20;12.67;;;3.03;;
2944;SDS011;1482;51.398;7.128;2022-09-29T13:10:37;2.13;;;1.93;;
2944;SDS011;1482;51.398;7.128;2022-09-29T13:24:19;2.50;;;2.30;;
2944;SDS011;1482;51.398;7.128;2022-09-29T13:29:42;3.30;;;1.97;;
2944;SDS011;1482;51.398;7.128;2022-09-29T13:32:14;2.90;;;2.10;;
2944;SDS011;1482;51.398;7.128;2022-09-29T13:34:44;2.47;;;2.20;;
2944;SDS011;1482;51.398;7.128;2022-09-29T13:37:22;6.33;;;2.43;;
2944;SDS011;1482;51.398;7.128;2022-09-29T13:39:51;4.70;;;2.40;;
2944;SDS011;1482;51.398;7.128;2022-09-29T13:42:42;3.10;;;2.17;;
2944;SDS011;1482;51.398;7.128;2022-09-29T13:47:46;2.47;;;2.27;;
2944;SDS011;1482;51.398;7.128;2022-09-29T14:00:50;3.47;;;2.57;;
2944;SDS011;1482;51.398;7.128;2022-09-29T14:03:22;4.17;;;2.63;;
2944;SDS011;1482;51.398;7.128;2022-09-29T14:11:14;3.00;;;2.20;;
2944;SDS011;1482;51.398;7.128;2022-09-29T14:21:55;3.70;;;2.73;;
2944;SDS011;1482;51.398;7.128;2022-09-29T14:29:59;3.73;;;2.10;;
2944;SDS011;1482;51.398;7.128;2022-09-29T14:35:12;3.43;;;1.97;;
2944;SDS011;1482;51.398;7.128;2022-09-29T14:37:41;2.50;;;2.00;;
2944;SDS011;1482;51.398;7.128;2022-09-29T14:40:08;2.00;;;1.90;;
2944;SDS011;1482;51.398;7.128;2022-09-29T14:43:07;3.33;;;2.33;;
2944;SDS011;1482;51.398;7.128;2022-09-29T14:45:41;2.77;;;2.40;;
2944;SDS011;1482;51.398;7.128;2022-09-29T14:48:47;4.17;;;2.47;;
2944;SDS011;1482;51.398;7.128;2022-09-29T14:51:42;5.63;;;1.87;;
2944;SDS011;1482;51.398;7.128;2022-09-29T14:54:29;3.27;;;2.97;;
2944;SDS011;1482;51.398;7.128;2022-09-29T14:57:10;5.07;;;2.50;;
2944;SDS011;1482;51.398;7.128;2022-09-29T15:02:23;4.70;;;2.20;;
2944;SDS011;1482;51.398;7.128;2022-09-29T15:04:51;4.90;;;2.57;;
2944;SDS011;1482;51.398;7.128;2022-09-29T15:07:18;2.50;;;1.80;;
2944;SDS011;1482;51.398;7.128;2022-09-29T15:09:47;2.27;;;2.07;;
2944;SDS011;1482;51.398;7.128;2022-09-29T15:12:22;5.47;;;2.60;;
2944;SDS011;1482;51.398;7.128;2022-09-29T15:14:50;2.90;;;2.50;;
2944;SDS011;1482;51.398;7.128;2022-09-29T15:17:28;3.87;;;2.80;;
2944;SDS011;1482;51.398;7.128;2022-09-29T15:27:54;2.47;;;2.27;;
2944;SDS011;1482;51.398;7.128;2022-09-29T15:30:24;3.73;;;2.07;;
2944;SDS011;1482;51.398;7.128;2022-09-29T15:32:51;2.60;;;2.00;;
2944;SDS011;1482;51.398;7.128;2022-09-29T15:35:22;3.20;;;2.80;;
2944;SDS011;1482;51.398;7.128;2022-09-29T15:40:15;3.00;;;2.33;;
2944;SDS011;1482;51.398;7.128;2022-09-29T15:42:44;7.93;;;3.07;;
2944;SDS011;1482;51.398;7.128;2022-09-29T15:47:43;2.43;;;2.30;;
2944;SDS011;1482;51.398;7.128;2022-09-29T15:50:27;3.00;;;2.70;;
2944;SDS011;1482;51.398;7.128;2022-09-29T15:52:59;6.90;;;2.20;;
2944;SDS011;1482;51.398;7.128;2022-09-29T15:55:26;2.50;;;2.30;;
2944;SDS011;1482;51.398;7.128;2022-09-29T15:57:54;2.50;;;1.80;;
2944;SDS011;1482;51.398;7.128;2022-09-29T16:02:51;5.20;;;2.40;;
2944;SDS011;1482;51.398;7.128;2022-09-29T16:05:22;2.67;;;2.47;;
2944;SDS011;1482;51.398;7.128;2022-09-29T16:07:59;2.57;;;2.23;;
2944;SDS011;1482;51.398;7.128;2022-09-29T16:10:28;3.20;;;2.17;;
2944;SDS011;1482;51.398;7.128;2022-09-29T16:12:59;6.40;;;2.03;;
2944;SDS011;1482;51.398;7.128;2022-09-29T16:18:06;5.40;;;4.73;;
2944;SDS011;1482;51.398;7.128;2022-09-29T16:20:35;4.97;;;2.23;;
2944;SDS011;1482;51.398;7.128;2022-09-29T16:23:05;2.80;;;2.57;;
2944;SDS011;1482;51.398;7.128;2022-09-29T16:25:41;3.83;;;3.53;;
2944;SDS011;1482;51.398;7.128;2022-09-29T16:28:15;3.23;;;2.93;;
2944;SDS011;1482;51.398;7.128;2022-09-29T16:33:51;3.00;;;2.70;;
2944;SDS011;1482;51.398;7.128;2022-09-29T16:36:22;4.37;;;2.30;;
2944;SDS011;1482;51.398;7.128;2022-09-29T16:38:50;3.10;;;2.10;;
2944;SDS011;1482;51.398;7.128;2022-09-29T16:41:27;3.23;;;2.43;;
2944;SDS011;1482;51.398;7.128;2022-09-29T16:47:03;3.90;;;2.60;;
2944;SDS011;1482;51.398;7.128;2022-09-29T16:49:54;2.83;;;2.37;;
2944;SDS011;1482;51.398;7.128;2022-09-29T16:52:23;5.27;;;2.57;;
2944;SDS011;1482;51.398;7.128;2022-09-29T16:54:54;6.20;;;3.07;;
2944;SDS011;1482;51.398;7.128;2022-09-29T16:57:32;3.43;;;3.13;;
2944;SDS011;1482;51.398;7.128;2022-09-29T17:00:05;2.60;;;2.40;;
2944;SDS011;1482;51.398;7.128;2022-09-29T17:02:35;2.97;;;2.67;;
2944;SDS011;1482;51.398;7.128;2022-09-29T17:05:01;4.20;;;2.90;;
2944;SDS011;1482;51.398;7.128;2022-09-29T17:07:29;5.30;;;3.70;;
2944;SDS011;1482;51.398;7.128;2022-09-29T17:09:57;3.93;;;2.50;;
2944;SDS011;1482;51.398;7.128;2022-09-29T17:12:25;3.80;;;2.47;;
2944;SDS011;1482;51.398;7.128;2022-09-29T17:14:52;4.00;;;2.47;;
2944;SDS011;1482;51.398;7.128;2022-09-29T17:17:27;3.00;;;2.80;;
2944;SDS011;1482;51.398;7.128;2022-09-29T17:19:53;3.77;;;2.80;;
2944;SDS011;1482;51.398;7.128;2022-09-29T17:22:27;4.90;;;2.40;;
2944;SDS011;1482;51.398;7.128;2022-09-29T17:24:55;10.97;;;2.67;;
2944;SDS011;1482;51.398;7.128;2022-09-29T17:27:21;2.80;;;2.60;;
2944;SDS011;1482;51.398;7.128;2022-09-29T17:30:06;4.77;;;3.27;;
2944;SDS011;1482;51.398;7.128;2022-09-29T17:32:32;6.87;;;3.30;;
2944;SDS011;1482;51.398;7.128;2022-09-29T17:34:59;3.07;;;2.40;;
2944;SDS011;1482;51.398;7.128;2022-09-29T17:37:25;3.83;;;3.13;;
2944;SDS011;1482;51.398;7.128;2022-09-29T17:39:51;5.63;;;3.40;;
2944;SDS011;1482;51.398;7.128;2022-09-29T17:42:17;6.30;;;3.13;;
2944;SDS011;1482;51.398;7.128;2022-09-29T17:44:43;5.30;;;4.80;;
2944;SDS011;1482;51.398;7.128;2022-09-29T17:47:12;6.40;;;4.37;;
2944;SDS011;1482;51.398;7.128;2022-09-29T17:49:39;9.70;;;3.23;;
2944;SDS011;1482;51.398;7.128;2022-09-29T17:52:06;4.03;;;3.10;;
2944;SDS011;1482;51.398;7.128;2022-09-29T17:54:34;6.17;;;3.50;;
2944;SDS011;1482;51.398;7.128;2022-09-29T17:57:01;7.93;;;3.70;;
2944;SDS011;1482;51.398;7.128;2022-09-29T17:59:28;3.73;;;2.93;;
2944;SDS011;1482;51.398;7.128;2022-09-29T18:01:55;4.50;;;2.73;;
2944;SDS011;1482;51.398;7.128;2022-09-29T18:04:20;4.67;;;3.13;;
2944;SDS011;1482;51.398;7.128;2022-09-29T18:06:49;6.10;;;4.53;;
2944;SDS011;1482;51.398;7.128;2022-09-29T18:09:15;10.87;;;5.50;;
2944;SDS011;1482;51.398;7.128;2022-09-29T18:11:42;5.83;;;3.97;;
2944;SDS011;1482;51.398;7.128;2022-09-29T18:14:09;6.83;;;5.10;;
2944;SDS011;1482;51.398;7.128;2022-09-29T18:16:35;9.37;;;5.10;;
2944;SDS011;1482;51.398;7.128;2022-09-29T18:19:00;8.70;;;4.67;;
2944;SDS011;1482;51.398;7.128;2022-09-29T18:21:26;8.40;;;4.67;;
2944;SDS011;1482;51.398;7.128;2022-09-29T18:23:53;7.20;;;4.60;;
2944;SDS011;1482;51.398;7.128;2022-09-29T18:26:18;13.03;;;5.27;;
2944;SDS011;1482;51.398;7.128;2022-09-29T18:28:45;14.27;;;7.20;;
2944;SDS011;1482;51.398;7.128;2022-09-29T18:31:26;20.70;;;14.80;;
2944;SDS011;1482;51.398;7.128;2022-09-29T18:33:53;21.43;;;18.27;;
2944;SDS011;1482;51.398;7.128;2022-09-29T18:36:19;14.50;;;12.60;;